Furenas — OZ2085 — position and weather

sailwx.info

Track history (hours):
 
Tides and Currents Weather Stations Pressure Air Temp Water Temp Dewpoint Dewpoint Depression Visibility Wind Speed Wind Dir Waves Ship Positions

Furenas

Last reported at 2015-May-23 03:28 UTC. Time now 2015-May-23 04:17 UTC.
Position N 52°27' E 004°08'.

Length 137 m; draft 7.7 m.

Type: Tanker. MMSI: 231734000.

Date/timePositionNaut miles runAvg speedWind from/ knotsBaromVisibWave heightAir tempDewpointWater temp
2015-May-23 03:28N 52°27' E 004°08'0 0.1
2015-May-23 02:31N 52°27' E 004°08'0 0.0
2015-May-23 01:34N 52°27' E 004°08'0 0.0
2015-May-23 00:33N 52°27' E 004°08'0 0.0
2015-May-22 23:33N 52°27' E 004°08'0 0.0
2015-May-22 22:33N 52°27' E 004°08'0 0.1
2015-May-22 21:33N 52°28' E 004°08'0 0.1
2015-May-22 20:33N 52°28' E 004°08'0 0.0
2015-May-22 19:33N 52°28' E 004°08'0 0.0
2015-May-22 18:33N 52°28' E 004°08'0 0.0
2015-May-22 17:33N 52°28' E 004°08'0 0.0
2015-May-22 16:33N 52°28' E 004°08'0 0.0
2015-May-22 15:33N 52°28' E 004°08'0 0.1
2015-May-22 14:33N 52°27' E 004°08'0 0.1
2015-May-22 13:33N 52°27' E 004°08'0 0.0
2015-May-22 12:34N 52°27' E 004°08'0 0.0
2015-May-22 11:33N 52°27' E 004°08'0 0.0
2015-May-22 10:34N 52°27' E 004°08'0 0.1
2015-May-22 09:32N 52°28' E 004°08'0 0.1
2015-May-22 08:33N 52°28' E 004°08'0 0.0
2015-May-22 07:33N 52°28' E 004°08'0 0.0
2015-May-22 06:34N 52°28' E 004°08'0 0.0
2015-May-22 05:33N 52°28' E 004°08'0 0.0
2015-May-22 04:33N 52°28' E 004°08'0 0.0
2015-May-22 03:33N 52°28' E 004°08'0 0.0
2015-May-22 02:33N 52°28' E 004°08'0 0.1
2015-May-22 01:33N 52°27' E 004°08'0 0.0
2015-May-22 00:33N 52°27' E 004°08'0 0.0
2015-May-21 23:33N 52°27' E 004°08'0 0.0
2015-May-21 22:34N 52°27' E 004°08'0 0.1
2015-May-21 21:33N 52°27' E 004°08'0 0.1
2015-May-21 20:33N 52°28' E 004°08'0 0.1
2015-May-21 19:33N 52°28' E 004°08'0 0.0
2015-May-21 18:32N 52°28' E 004°08'0 0.1
2015-May-21 17:33N 52°28' E 004°08'6 6.0
2015-May-21 16:33N 52°33' E 004°06'1111.0
2015-May-21 15:33N 52°44' E 004°01'3710.9
2015-May-21 12:09N 53°17' E 004°30'1811.4
2015-May-21 10:33N 53°30' E 004°50'1211.8
2015-May-21 09:33N 53°35' E 005°08'1111.0
2015-May-21 08:33N 53°38' E 005°26'1110.6
2015-May-21 07:33N 53°41' E 005°43'1110.9
2015-May-21 06:33N 53°45' E 006°00'4811.9
2015-May-21 02:32N 53°58' E 007°18'1211.8
2015-May-21 01:33N 54°01' E 007°37'1211.9
2015-May-21 00:33N 54°01' E 007°57'1611.3
2015-May-20 23:10N 53°59' E 008°24'610.2
2015-May-20 22:33N 53°58' E 008°35'1212.1
2015-May-20 21:33N 53°50' E 008°51'1515.1
2015-May-20 20:33N 53°52' E 009°16'1515.5
2015-May-20 19:33N 53°40' E 009°31'1414.2
2015-May-20 18:33N 53°33' E 009°52'5 5.1
2015-May-20 17:33N 53°29' E 009°57'0 0.1
2015-May-20 16:34N 53°29' E 009°57'0 0.0
2015-May-19 08:29N 53°29' E 009°57'0 0.1
2015-May-19 07:33N 53°29' E 009°57'4 3.7
2015-May-19 06:33N 53°32' E 009°56'1010.3
2015-May-19 05:33N 53°34' E 009°39'1212.1
2015-May-19 04:33N 53°44' E 009°27'1212.1
2015-May-19 03:34N 53°53' E 009°13'1010.4
2015-May-19 02:34N 53°51' E 008°56'1111.0
2015-May-19 01:33N 53°56' E 008°39'1313.0
2015-May-19 00:33N 53°59' E 008°18'1110.5
2015-May-18 23:33N 53°58' E 008°00'1110.9
2015-May-18 22:33N 53°56' E 007°42'1111.2
2015-May-18 21:33N 53°53' E 007°24'1111.3
2015-May-18 20:33N 53°50' E 007°05'3511.5
2015-May-18 17:33N 53°41' E 006°09'1211.9
2015-May-18 16:33N 53°38' E 005°50'1211.7
2015-May-18 15:33N 53°34' E 005°31'1211.6
2015-May-18 14:33N 53°30' E 005°13'1211.7
2015-May-18 13:33N 53°26' E 004°54'1111.1
2015-May-18 12:32N 53°19' E 004°40'2311.6
2015-May-18 10:33N 52°59' E 004°22'1211.6
2015-May-18 09:33N 52°48' E 004°13'1111.3
2015-May-18 08:34N 52°38' E 004°07'10 9.7
2015-May-18 07:34N 52°31' E 004°17'1010.3
2015-May-18 06:33N 52°28' E 004°34'2 1.8
2015-May-18 05:33N 52°28' E 004°37'7 6.6
2015-May-18 04:34N 52°26' E 004°47'2 2.1
2015-May-18 03:30N 52°25' E 004°50'0 0.0
2015-May-18 02:30N 52°25' E 004°50'0 0.0
2015-May-18 01:30N 52°25' E 004°50'0 0.0
2015-May-18 00:27N 52°25' E 004°50'0 0.0
2015-May-17 23:33N 52°25' E 004°50'0 0.0
2015-May-17 22:33N 52°25' E 004°50'0 0.0
2015-May-17 21:33N 52°25' E 004°50'0 0.0
2015-May-17 20:33N 52°25' E 004°50'0 0.0
2015-May-17 19:33N 52°25' E 004°50'0 0.0
2015-May-17 18:33N 52°25' E 004°50'0 0.0
2015-May-17 17:33N 52°25' E 004°50'0 0.0
2015-May-17 16:33N 52°25' E 004°50'0 0.0
2015-May-17 15:33N 52°25' E 004°50'0 0.0
2015-May-17 14:30N 52°25' E 004°50'0 0.0
2015-May-17 13:33N 52°25' E 004°50'0 0.0
2015-May-17 12:33N 52°25' E 004°50'0 0.0
2015-May-17 11:33N 52°25' E 004°50'0 0.0
2015-May-17 10:33N 52°25' E 004°50'0 0.0
2015-May-17 09:33N 52°25' E 004°50'0 0.0
2015-May-17 08:33N 52°25' E 004°50'0 0.0
2015-May-17 07:33N 52°25' E 004°50'0 0.0
2015-May-17 06:27N 52°25' E 004°50'0 0.0
2015-May-17 05:33N 52°25' E 004°50'0 0.0
2015-May-17 04:33N 52°25' E 004°50'0 0.0
2015-May-17 03:33N 52°25' E 004°50'0 0.0
2015-May-17 02:30N 52°25' E 004°50'0 0.0
2015-May-17 01:27N 52°25' E 004°50'0 0.0
2015-May-17 00:27N 52°25' E 004°50'0 0.0
2015-May-16 23:21N 52°25' E 004°50'0 0.0
2015-May-16 22:33N 52°25' E 004°50'0 0.0
2015-May-16 21:26N 52°25' E 004°50'0 0.0
2015-May-16 20:32N 52°25' E 004°50'0 0.0
2015-May-16 19:29N 52°25' E 004°50'0 0.0
2015-May-16 18:33N 52°25' E 004°50'3 3.4
2015-May-16 17:33N 52°26' E 004°45'6 5.5
2015-May-16 16:32N 52°28' E 004°37'7 6.8
2015-May-16 15:33N 52°29' E 004°26'9 9.0
2015-May-16 14:33N 52°28' E 004°11'1 1.1
2015-May-16 13:28N 52°28' E 004°09'0 0.0
2015-May-16 12:31N 52°28' E 004°09'0 0.1
2015-May-16 11:31N 52°28' E 004°09'0 0.1
2015-May-16 10:31N 52°28' E 004°09'0 0.1
2015-May-16 09:28N 52°28' E 004°09'1 1.0
2015-May-16 08:33N 52°28' E 004°10'1110.9
2015-May-16 07:31N 52°39' E 004°02'1211.7
2015-May-16 06:31N 52°49' E 003°54'12710.6
2015-May-15 18:29N 54°47' E 005°18'24811.8
2015-May-14 21:33N 57°49' E 010°21'1212.0
2015-May-14 20:33N 57°48' E 010°44'1212.1
2015-May-14 19:34N 57°44' E 011°05'1211.6
2015-May-14 18:33N 57°39' E 011°25'10 9.8
2015-May-14 17:33N 57°39' E 011°43'5 5.1
2015-May-14 16:31N 57°41' E 011°52'0 0.0
2015-May-14 15:31N 57°41' E 011°52'0 0.0
2015-May-14 14:31N 57°41' E 011°52'0 0.0
2015-May-14 13:31N 57°41' E 011°52'0 0.0
2015-May-14 12:31N 57°41' E 011°52'0 0.0
2015-May-14 11:34N 57°41' E 011°52'0 0.0
2015-May-14 10:30N 57°41' E 011°52'0 0.0
2015-May-14 09:33N 57°41' E 011°52'0 0.0
2015-May-14 08:33N 57°41' E 011°52'0 0.0
2015-May-14 07:33N 57°41' E 011°52'0 0.0
2015-May-14 06:33N 57°41' E 011°52'0 0.0
2015-May-14 05:33N 57°41' E 011°52'0 0.0
2015-May-14 04:33N 57°41' E 011°52'0 0.0
2015-May-14 03:33N 57°41' E 011°52'0 0.0
2015-May-14 02:30N 57°41' E 011°52'0 0.0
2015-May-14 01:33N 57°41' E 011°52'0 0.0
2015-May-14 00:30N 57°41' E 011°52'0 0.0
2015-May-13 23:33N 57°41' E 011°52'0 0.0
2015-May-13 22:33N 57°41' E 011°52'0 0.0
2015-May-13 21:33N 57°41' E 011°52'0 0.0
2015-May-13 20:33N 57°41' E 011°52'0 0.0
2015-May-13 19:30N 57°41' E 011°52'1 1.2
2015-May-13 18:33N 57°41' E 011°50'9 9.1
2015-May-13 17:33N 57°36' E 011°36'8 8.4
2015-May-13 16:33N 57°41' E 011°23'1211.8
2015-May-13 15:33N 57°52' E 011°17'1212.0
2015-May-13 14:33N 58°04' E 011°10'1211.5
2015-May-13 13:33N 58°15' E 011°03'1111.0
2015-May-13 12:33N 58°25' E 010°56'1111.2
2015-May-13 11:33N 58°36' E 010°51'1311.7
2015-May-13 10:28N 58°48' E 010°42'1111.5
2015-May-13 09:33N 58°58' E 010°37'1010.2
2015-May-13 08:33N 59°08' E 010°35'1312.9
2015-May-13 07:33N 59°21' E 010°34'1312.8
2015-May-13 06:33N 59°34' E 010°37'  
Track history (hours):
 
Tides and Currents Weather Stations Pressure Air Temp Water Temp Dewpoint Dewpoint Depression Visibility Wind Speed Wind Dir Waves Ship Positions

Furenas

Last reported at 2015-May-23 03:28 UTC. Time now 2015-May-23 04:17 UTC.
Position N 52°27' E 004°08'.

Length 137 m; draft 7.7 m.

Type: Tanker. MMSI: 231734000.

Date/timePositionNaut miles runAvg speedWind from/ knotsBaromVisibWave heightAir tempDewpointWater temp
2015-May-23 03:28N 52°27' E 004°08'0 0.1
2015-May-23 02:31N 52°27' E 004°08'0 0.0
2015-May-23 01:34N 52°27' E 004°08'0 0.0
2015-May-23 00:33N 52°27' E 004°08'0 0.0
2015-May-22 23:33N 52°27' E 004°08'0 0.0
2015-May-22 22:33N 52°27' E 004°08'0 0.1
2015-May-22 21:33N 52°28' E 004°08'0 0.1
2015-May-22 20:33N 52°28' E 004°08'0 0.0
2015-May-22 19:33N 52°28' E 004°08'0 0.0
2015-May-22 18:33N 52°28' E 004°08'0 0.0
2015-May-22 17:33N 52°28' E 004°08'0 0.0
2015-May-22 16:33N 52°28' E 004°08'0 0.0
2015-May-22 15:33N 52°28' E 004°08'0 0.1
2015-May-22 14:33N 52°27' E 004°08'0 0.1
2015-May-22 13:33N 52°27' E 004°08'0 0.0
2015-May-22 12:34N 52°27' E 004°08'0 0.0
2015-May-22 11:33N 52°27' E 004°08'0 0.0
2015-May-22 10:34N 52°27' E 004°08'0 0.1
2015-May-22 09:32N 52°28' E 004°08'0 0.1
2015-May-22 08:33N 52°28' E 004°08'0 0.0
2015-May-22 07:33N 52°28' E 004°08'0 0.0
2015-May-22 06:34N 52°28' E 004°08'0 0.0
2015-May-22 05:33N 52°28' E 004°08'0 0.0
2015-May-22 04:33N 52°28' E 004°08'0 0.0
2015-May-22 03:33N 52°28' E 004°08'0 0.0
2015-May-22 02:33N 52°28' E 004°08'0 0.1
2015-May-22 01:33N 52°27' E 004°08'0 0.0
2015-May-22 00:33N 52°27' E 004°08'0 0.0
2015-May-21 23:33N 52°27' E 004°08'0 0.0
2015-May-21 22:34N 52°27' E 004°08'0 0.1
2015-May-21 21:33N 52°27' E 004°08'0 0.1
2015-May-21 20:33N 52°28' E 004°08'0 0.1
2015-May-21 19:33N 52°28' E 004°08'0 0.0
2015-May-21 18:32N 52°28' E 004°08'0 0.1
2015-May-21 17:33N 52°28' E 004°08'6 6.0
2015-May-21 16:33N 52°33' E 004°06'1111.0
2015-May-21 15:33N 52°44' E 004°01'3710.9
2015-May-21 12:09N 53°17' E 004°30'1811.4
2015-May-21 10:33N 53°30' E 004°50'1211.8
2015-May-21 09:33N 53°35' E 005°08'1111.0
2015-May-21 08:33N 53°38' E 005°26'1110.6
2015-May-21 07:33N 53°41' E 005°43'1110.9
2015-May-21 06:33N 53°45' E 006°00'4811.9
2015-May-21 02:32N 53°58' E 007°18'1211.8
2015-May-21 01:33N 54°01' E 007°37'1211.9
2015-May-21 00:33N 54°01' E 007°57'1611.3
2015-May-20 23:10N 53°59' E 008°24'610.2
2015-May-20 22:33N 53°58' E 008°35'1212.1
2015-May-20 21:33N 53°50' E 008°51'1515.1
2015-May-20 20:33N 53°52' E 009°16'1515.5
2015-May-20 19:33N 53°40' E 009°31'1414.2
2015-May-20 18:33N 53°33' E 009°52'5 5.1
2015-May-20 17:33N 53°29' E 009°57'0 0.1
2015-May-20 16:34N 53°29' E 009°57'0 0.0
2015-May-19 08:29N 53°29' E 009°57'0 0.1
2015-May-19 07:33N 53°29' E 009°57'4 3.7
2015-May-19 06:33N 53°32' E 009°56'1010.3
2015-May-19 05:33N 53°34' E 009°39'1212.1
2015-May-19 04:33N 53°44' E 009°27'1212.1
2015-May-19 03:34N 53°53' E 009°13'1010.4
2015-May-19 02:34N 53°51' E 008°56'1111.0
2015-May-19 01:33N 53°56' E 008°39'1313.0
2015-May-19 00:33N 53°59' E 008°18'1110.5
2015-May-18 23:33N 53°58' E 008°00'1110.9
2015-May-18 22:33N 53°56' E 007°42'1111.2
2015-May-18 21:33N 53°53' E 007°24'1111.3
2015-May-18 20:33N 53°50' E 007°05'3511.5
2015-May-18 17:33N 53°41' E 006°09'1211.9
2015-May-18 16:33N 53°38' E 005°50'1211.7
2015-May-18 15:33N 53°34' E 005°31'1211.6
2015-May-18 14:33N 53°30' E 005°13'1211.7
2015-May-18 13:33N 53°26' E 004°54'1111.1
2015-May-18 12:32N 53°19' E 004°40'2311.6
2015-May-18 10:33N 52°59' E 004°22'1211.6
2015-May-18 09:33N 52°48' E 004°13'1111.3
2015-May-18 08:34N 52°38' E 004°07'10 9.7
2015-May-18 07:34N 52°31' E 004°17'1010.3
2015-May-18 06:33N 52°28' E 004°34'2 1.8
2015-May-18 05:33N 52°28' E 004°37'7 6.6
2015-May-18 04:34N 52°26' E 004°47'2 2.1
2015-May-18 03:30N 52°25' E 004°50'0 0.0
2015-May-18 02:30N 52°25' E 004°50'0 0.0
2015-May-18 01:30N 52°25' E 004°50'0 0.0
2015-May-18 00:27N 52°25' E 004°50'0 0.0
2015-May-17 23:33N 52°25' E 004°50'0 0.0
2015-May-17 22:33N 52°25' E 004°50'0 0.0
2015-May-17 21:33N 52°25' E 004°50'0 0.0
2015-May-17 20:33N 52°25' E 004°50'0 0.0
2015-May-17 19:33N 52°25' E 004°50'0 0.0
2015-May-17 18:33N 52°25' E 004°50'0 0.0
2015-May-17 17:33N 52°25' E 004°50'0 0.0
2015-May-17 16:33N 52°25' E 004°50'0 0.0
2015-May-17 15:33N 52°25' E 004°50'0 0.0
2015-May-17 14:30N 52°25' E 004°50'0 0.0
2015-May-17 13:33N 52°25' E 004°50'0 0.0
2015-May-17 12:33N 52°25' E 004°50'0 0.0
2015-May-17 11:33N 52°25' E 004°50'0 0.0
2015-May-17 10:33N 52°25' E 004°50'0 0.0
2015-May-17 09:33N 52°25' E 004°50'0 0.0
2015-May-17 08:33N 52°25' E 004°50'0 0.0
2015-May-17 07:33N 52°25' E 004°50'0 0.0
2015-May-17 06:27N 52°25' E 004°50'0 0.0
2015-May-17 05:33N 52°25' E 004°50'0 0.0
2015-May-17 04:33N 52°25' E 004°50'0 0.0
2015-May-17 03:33N 52°25' E 004°50'0 0.0
2015-May-17 02:30N 52°25' E 004°50'0 0.0
2015-May-17 01:27N 52°25' E 004°50'0 0.0
2015-May-17 00:27N 52°25' E 004°50'0 0.0
2015-May-16 23:21N 52°25' E 004°50'0 0.0
2015-May-16 22:33N 52°25' E 004°50'0 0.0
2015-May-16 21:26N 52°25' E 004°50'0 0.0
2015-May-16 20:32N 52°25' E 004°50'0 0.0
2015-May-16 19:29N 52°25' E 004°50'0 0.0
2015-May-16 18:33N 52°25' E 004°50'3 3.4
2015-May-16 17:33N 52°26' E 004°45'6 5.5
2015-May-16 16:32N 52°28' E 004°37'7 6.8
2015-May-16 15:33N 52°29' E 004°26'9 9.0
2015-May-16 14:33N 52°28' E 004°11'1 1.1
2015-May-16 13:28N 52°28' E 004°09'0 0.0
2015-May-16 12:31N 52°28' E 004°09'0 0.1
2015-May-16 11:31N 52°28' E 004°09'0 0.1
2015-May-16 10:31N 52°28' E 004°09'0 0.1
2015-May-16 09:28N 52°28' E 004°09'1 1.0
2015-May-16 08:33N 52°28' E 004°10'1110.9
2015-May-16 07:31N 52°39' E 004°02'1211.7
2015-May-16 06:31N 52°49' E 003°54'12710.6
2015-May-15 18:29N 54°47' E 005°18'24811.8
2015-May-14 21:33N 57°49' E 010°21'1212.0
2015-May-14 20:33N 57°48' E 010°44'1212.1
2015-May-14 19:34N 57°44' E 011°05'1211.6
2015-May-14 18:33N 57°39' E 011°25'10 9.8
2015-May-14 17:33N 57°39' E 011°43'5 5.1
2015-May-14 16:31N 57°41' E 011°52'0 0.0
2015-May-14 15:31N 57°41' E 011°52'0 0.0
2015-May-14 14:31N 57°41' E 011°52'0 0.0
2015-May-14 13:31N 57°41' E 011°52'0 0.0
2015-May-14 12:31N 57°41' E 011°52'0 0.0
2015-May-14 11:34N 57°41' E 011°52'0 0.0
2015-May-14 10:30N 57°41' E 011°52'0 0.0
2015-May-14 09:33N 57°41' E 011°52'0 0.0
2015-May-14 08:33N 57°41' E 011°52'0 0.0
2015-May-14 07:33N 57°41' E 011°52'0 0.0
2015-May-14 06:33N 57°41' E 011°52'0 0.0
2015-May-14 05:33N 57°41' E 011°52'0 0.0
2015-May-14 04:33N 57°41' E 011°52'0 0.0
2015-May-14 03:33N 57°41' E 011°52'0 0.0
2015-May-14 02:30N 57°41' E 011°52'0 0.0
2015-May-14 01:33N 57°41' E 011°52'0 0.0
2015-May-14 00:30N 57°41' E 011°52'0 0.0
2015-May-13 23:33N 57°41' E 011°52'0 0.0
2015-May-13 22:33N 57°41' E 011°52'0 0.0
2015-May-13 21:33N 57°41' E 011°52'0 0.0
2015-May-13 20:33N 57°41' E 011°52'0 0.0
2015-May-13 19:30N 57°41' E 011°52'1 1.2
2015-May-13 18:33N 57°41' E 011°50'9 9.1
2015-May-13 17:33N 57°36' E 011°36'8 8.4
2015-May-13 16:33N 57°41' E 011°23'1211.8
2015-May-13 15:33N 57°52' E 011°17'1212.0
2015-May-13 14:33N 58°04' E 011°10'1211.5
2015-May-13 13:33N 58°15' E 011°03'1111.0
2015-May-13 12:33N 58°25' E 010°56'1111.2
2015-May-13 11:33N 58°36' E 010°51'1311.7
2015-May-13 10:28N 58°48' E 010°42'1111.5
2015-May-13 09:33N 58°58' E 010°37'1010.2
2015-May-13 08:33N 59°08' E 010°35'1312.9
2015-May-13 07:33N 59°21' E 010°34'1312.8
2015-May-13 06:33N 59°34' E 010°37'  

Dump ship's entire track history